M I D A S
Marine Information and Data Acquisition System
Tripno 666 of the Zeeleeuw from 2004-03-12 07:35:30 to 2004-03-12 13:04:31
Back to CruiseResearch ActivitiesStationsMapUnderway DataData graphs

EquipmentUnitsComment
TimeDGPSUTC
LatitudeDGPSDM.mWGS84
LongitudeDGPSDM.mWGS84
TemperatureSBE03/SBE38deg celciusITS90
ConductivitySBE21S/mITS90
SalinitySBE21 Practical Salinity Units
ChlorophylAChelsea fluorimeterg/lCalibrated in Aceton
Missing or incorrect values are displayed as -999
Sea surface data collected by the RV Zeeleeuw from 2004-03-12 07:35:30 to 2004-03-12 13:04:31
Time Latitude Longitude Temperature Conductivity Salinity ChlorophylA
2004-03-12 07:36:33 51°13.679 2°55.759 5.436696 2.586247 25.284651 8.960768
2004-03-12 07:37:33 51°13.695 2°55.736 5.371344 2.581095 25.420997 11.253007
2004-03-12 07:38:33 51°13.768 2°55.673 4.765341 1.939278 18.747962 12.533965
2004-03-12 07:39:34 51°13.885 2°55.59 4.779541 2.5668 26.11046 11.927195
2004-03-12 07:40:33 51°14.009 2°55.502 4.750018 2.534303 25.761179 11.994614
2004-03-12 07:41:33 51°14.144 2°55.399 4.747065 2.687347 27.492814 12.23058
2004-03-12 07:42:34 51°14.288 2°55.209 4.723893 2.600037 26.519917 11.488973
2004-03-12 07:43:33 51°14.408 2°54.946 4.708101 2.636537 26.960039 11.590101
2004-03-12 07:44:33 51°14.526 2°54.734 4.616838 2.763415 28.436195 12.399127
2004-03-12 07:45:33 51°14.626 2°54.587 4.6376 2.871276 29.69488 11.826067
2004-03-12 07:46:33 51°14.7 2°54.522 4.658407 2.895693 29.961638 11.792358
2004-03-12 07:47:33 51°14.752 2°54.488 4.635356 2.917164 30.202865 11.11817
2004-03-12 07:48:33 51°14.791 2°54.459 4.62194 2.906533 30.099779 11.185589
2004-03-12 07:49:34 51°14.856 2°54.392 4.61546 2.916953 30.230899 11.151879
2004-03-12 07:50:33 51°15.016 2°54.223 4.60847 2.916953 30.234107 10.612529
2004-03-12 07:51:33 51°15.204 2°54.015 4.614644 2.916322 30.245338 10.646238
2004-03-12 07:52:33 51°15.415 2°53.851 4.592546 2.906534 30.138135 10.039469
2004-03-12 07:53:34 51°15.627 2°53.672 4.595098 2.932321 30.437406 9.500118
2004-03-12 07:54:33 51°15.837 2°53.508 4.592495 2.936004 30.478809 9.230443
2004-03-12 07:55:33 51°16.051 2°53.345 4.630357 2.923164 30.335733 8.960768
2004-03-12 07:56:33 51°16.267 2°53.184 4.638672 2.94274 30.518739 9.803503
2004-03-12 07:57:33 51°16.482 2°53.023 4.661314 2.949792 30.58976 9.095606
2004-03-12 07:58:33 51°16.695 2°52.861 4.681858 2.961055 30.700026 9.061896
2004-03-12 07:59:33 51°16.904 2°52.703 4.680736 2.968844 30.778619 8.960768
2004-03-12 08:00:33 51°17.116 2°52.543 4.667992 2.961687 30.704816 8.960768
2004-03-12 08:01:33 51°17.322 2°52.362 4.660855 2.970423 30.816286 8.28658
2004-03-12 08:02:33 51°17.514 2°52.139 4.646118 2.981687 30.954391 8.219161
2004-03-12 08:03:34 51°17.69 2°51.875 4.690675 2.988844 31.018393 8.421418
2004-03-12 08:04:34 51°17.858 2°51.606 4.730718 3.005371 31.160875 8.724802
2004-03-12 08:05:33 51°18.025 2°51.338 4.726593 3.023372 31.358061 8.792221
2004-03-12 08:06:33 51°18.198 2°51.066 4.710394 2.999686 31.092473 8.758512
2004-03-12 08:07:34 51°18.351 2°50.759 4.737746 3.024214 31.374353 8.82593
2004-03-12 08:08:34 51°18.496 2°50.449 4.771093 3.023266 31.327856 9.061896
2004-03-12 08:09:34 51°18.645 2°50.142 4.769973 3.023582 31.323196 9.163024
2004-03-12 08:10:33 51°18.79 2°49.842 4.790125 3.031372 31.413233 9.331571
2004-03-12 08:11:34 51°18.939 2°49.53 4.816069 3.014528 31.19238 9.163024
2004-03-12 08:12:33 51°19.086 2°49.222 4.837275 3.01716 31.187908 9.567537
2004-03-12 08:13:34 51°19.238 2°48.903 4.840783 3.017476 31.189871 9.567537
2004-03-12 08:14:33 51°19.368 2°48.581 4.841545 3.020318 31.220693 9.668665
2004-03-12 08:15:33 51°19.469 2°48.224 4.846019 3.021371 31.231896 9.870922
2004-03-12 08:16:33 51°19.573 2°47.867 4.841342 3.010633 31.105169 9.4327
2004-03-12 08:17:34 51°19.683 2°47.505 4.848256 3.021055 31.226642 9.4327
2004-03-12 08:18:33 51°19.79 2°47.161 4.865944 3.024423 31.256065 9.028187
2004-03-12 08:19:34 51°19.876 2°46.794 4.88007 3.028845 31.295026 8.556255
2004-03-12 08:20:33 51°19.954 2°46.433 4.89206 3.043162 31.44119 8.118033
2004-03-12 08:21:33 51°19.991 2°46.048 4.891247 3.043162 31.437881 8.084324
2004-03-12 08:22:33 51°19.908 2°45.688 4.884998 3.027055 31.259773 8.589965
2004-03-12 08:23:33 51°19.789 2°45.348 4.888961 3.040741 31.413538 8.084324
2004-03-12 08:24:34 51°19.674 2°44.995 4.878241 3.02695 31.262686 8.691093
2004-03-12 08:25:34 51°19.563 2°44.644 4.86945 3.04232 31.445642 8.522546
2004-03-12 08:26:34 51°19.458 2°44.294 4.871127 3.040425 31.423992 8.792221
2004-03-12 08:27:34 51°19.352 2°43.94 4.867773 3.043478 31.466331 8.994477
2004-03-12 08:28:34 51°19.241 2°43.593 4.865385 3.044425 31.477989 8.82593
2004-03-12 08:29:33 51°19.136 2°43.254 4.852119 3.047584 31.520733 8.691093
2004-03-12 08:30:34 51°18.988 2°42.95 4.850594 3.0479 31.531821 9.028187
2004-03-12 08:31:34 51°18.847 2°42.641 4.8479 3.048216 31.536264 8.691093
2004-03-12 08:32:33 51°18.727 2°42.317 4.850391 3.0519 31.580076 8.657383
2004-03-12 08:33:34 51°18.6 2°41.986 4.921618 3.072745 31.809445 9.668665
2004-03-12 08:34:34 51°18.473 2°41.658 4.951416 3.08959 31.923308 9.702375
2004-03-12 08:35:33 51°18.351 2°41.331 4.954055 3.088853 31.9065 9.39899
2004-03-12 08:36:34 51°18.226 2°40.99 4.958977 3.093064 31.944551 9.601247
2004-03-12 08:37:33 51°18.106 2°40.66 4.961819 3.094328 31.957307 9.297862
2004-03-12 08:38:34 51°17.979 2°40.318 4.963087 3.096539 31.985087 9.4327
2004-03-12 08:39:33 51°17.867 2°40.018 4.963849 3.099065 32.009758 9.129315
2004-03-12 08:40:34 51°17.791 2°39.866 4.958926 3.102013 32.046812 9.668665
2004-03-12 08:41:33 51°17.768 2°39.812 4.968009 3.104646 32.07437 9.230443
2004-03-12 08:42:34 51°17.759 2°39.768 4.965675 3.106751 32.096754 9.601247
2004-03-12 08:43:34 51°17.753 2°39.724 4.971003 3.107804 32.105416 8.994477
2004-03-12 08:44:34 51°17.75 2°39.678 4.984243 3.108752 32.106973 9.567537
2004-03-12 08:45:33 51°17.749 2°39.631 5.006101 3.110752 32.113816 9.331571
2004-03-12 08:46:34 51°17.75 2°39.581 5.023694 3.112331 32.115847 9.028187
2004-03-12 08:47:33 51°17.752 2°39.531 5.025367 3.114331 32.121843 9.533828
2004-03-12 08:48:33 51°17.753 2°39.482 5.0132 3.114121 32.127859 9.230443
2004-03-12 08:49:33 51°17.752 2°39.434 4.997176 3.112436 32.116207 10.410272
2004-03-12 08:50:33 51°17.751 2°39.386 4.988656 3.1117 32.126326 9.533828
2004-03-12 08:51:33 51°17.749 2°39.338 4.989112 3.111068 32.123324 9.736084
2004-03-12 08:52:33 51°17.745 2°39.29 4.984446 3.111384 32.127776 9.870922
2004-03-12 08:53:34 51°17.739 2°39.243 4.982468 3.111279 32.129102 9.668665
2004-03-12 08:54:33 51°17.731 2°39.199 4.98054 3.110963 32.128023 9.634956
2004-03-12 08:55:33 51°17.723 2°39.156 4.980794 3.111173 32.129586 10.410272
2004-03-12 08:56:34 51°17.697 2°39.135 4.977395 3.111489 32.136569 10.106888
2004-03-12 08:57:33 51°17.692 2°39.188 4.975112 3.111595 32.142834 10.174306
2004-03-12 08:58:34 51°17.718 2°39.29 4.972423 3.113384 32.157383 10.275435
2004-03-12 08:59:33 51°17.717 2°39.397 4.964863 3.114121 32.175941 10.039469
2004-03-12 09:00:33 51°17.717 2°39.403 4.959941 3.114964 32.192334 9.837212
2004-03-12 09:01:34 51°17.72 2°39.388 4.958216 3.115385 32.199687 9.601247
2004-03-12 09:02:34 51°17.724 2°39.361 4.957658 3.115596 32.204633 10.477691
2004-03-12 09:03:33 51°17.727 2°39.357 4.955019 3.115596 32.203787 10.410272
2004-03-12 09:04:33 51°17.718 2°39.428 4.952888 3.115701 32.204145 9.97205
2004-03-12 09:05:34 51°17.69 2°39.521 4.949487 3.116754 32.219573 9.4327
2004-03-12 09:06:34 51°17.651 2°39.557 4.956998 3.118333 32.24018 10.342853
2004-03-12 09:07:33 51°17.616 2°39.565 4.961667 3.121281 32.268824 9.870922
2004-03-12 09:08:33 51°17.588 2°39.568 4.972728 3.12265 32.276853 9.938341
2004-03-12 09:09:34 51°17.563 2°39.573 4.986678 3.124966 32.290631 10.106888
2004-03-12 09:10:34 51°17.535 2°39.606 4.993373 3.127177 32.30574 10.275435
2004-03-12 09:11:34 51°17.504 2°39.657 4.996669 3.129178 32.325219 10.5114
2004-03-12 09:12:34 51°17.466 2°39.701 5.002907 3.131284 32.342507 11.08446
2004-03-12 09:13:33 51°17.412 2°39.695 5.010107 3.133495 32.362691 10.275435
2004-03-12 09:14:33 51°17.354 2°39.67 5.017205 3.136338 32.388393 10.241725
2004-03-12 09:15:34 51°17.295 2°39.633 5.019994 3.138549 32.408569 10.679947
2004-03-12 09:16:34 51°17.241 2°39.584 5.013961 3.140444 32.430231 10.241725
2004-03-12 09:17:34 51°17.19 2°39.538 5.025773 3.14097 32.4388 9.837212
2004-03-12 09:18:33 51°17.141 2°39.496 5.006659 3.140339 32.429028 10.376563
2004-03-12 09:19:34 51°17.092 2°39.45 5.008434 3.137917 32.415797 9.97205
2004-03-12 09:20:34 51°17.043 2°39.404 5.012845 3.139286 32.428896 10.443982
2004-03-12 09:21:33 51°16.997 2°39.359 4.990279 3.138654 32.420823 10.039469
2004-03-12 09:22:34 51°16.95 2°39.315 4.973996 3.130863 32.362313 10.039469
2004-03-12 09:23:33 51°16.903 2°39.276 4.965675 3.127915 32.338777 10.174306
2004-03-12 09:24:33 51°16.856 2°39.239 4.956947 3.127388 32.335301 10.241725
2004-03-12 09:25:34 51°16.806 2°39.204 4.944412 3.12444 32.311754 10.275435
2004-03-12 09:26:33 51°16.759 2°39.174 4.936036 3.121597 32.286856 9.803503
2004-03-12 09:27:34 51°16.709 2°39.133 4.925223 3.119386 32.272575 9.803503
2004-03-12 09:28:34 51°16.659 2°39.084 4.923293 3.117912 32.264183 9.803503
2004-03-12 09:29:34 51°16.61 2°39.026 4.921059 3.11707 32.255386 10.005759
2004-03-12 09:30:34 51°16.563 2°38.962 4.91781 3.11507 32.236719 9.870922
2004-03-12 09:31:34 51°16.515 2°38.903 4.925375 3.114543 32.228996 10.241725
2004-03-12 09:32:34 51°16.468 2°38.848 4.92309 3.114859 32.229222 9.870922
2004-03-12 09:33:34 51°16.42 2°38.798 4.92964 3.114648 32.228506 9.837212
2004-03-12 09:34:33 51°16.373 2°38.752 4.927914 3.115807 32.237528 10.208016
2004-03-12 09:35:34 51°16.325 2°38.709 4.929031 3.116333 32.240164 10.410272
2004-03-12 09:36:34 51°16.276 2°38.671 4.930757 3.117281 32.248468 10.241725
2004-03-12 09:37:33 51°16.228 2°38.638 4.934767 3.117175 32.246415 10.039469
2004-03-12 09:38:33 51°16.18 2°38.609 4.928726 3.116754 32.242442 9.803503
2004-03-12 09:39:33 51°16.132 2°38.583 4.921466 3.115807 32.238376 10.106888
2004-03-12 09:40:34 51°16.08 2°38.552 4.915118 3.114227 32.227922 9.769794
2004-03-12 09:41:33 51°16.029 2°38.516 4.907958 3.113596 32.226622 10.241725
2004-03-12 09:42:33 51°15.976 2°38.471 4.912071 3.11328 32.223852 9.769794
2004-03-12 09:43:33 51°15.923 2°38.418 4.91522 3.113069 32.218897 9.668665
2004-03-12 09:44:33 51°15.87 2°38.36 4.920653 3.112859 32.213096 10.073178
2004-03-12 09:45:33 51°15.818 2°38.3 4.922176 3.113596 32.219841 9.803503
2004-03-12 09:46:33 51°15.764 2°38.242 4.925274 3.114227 32.222837 10.443982
2004-03-12 09:47:34 51°15.711 2°38.181 4.919333 3.11349 32.215246 10.073178
2004-03-12 09:48:33 51°15.659 2°38.12 4.920349 3.112964 32.21176 10.174306
2004-03-12 09:49:33 51°15.606 2°38.057 4.917302 3.112332 32.205374 10.376563
2004-03-12 09:50:34 51°15.556 2°37.981 4.907806 3.111279 32.196707 10.140597
2004-03-12 09:51:34 51°15.519 2°37.872 4.898257 3.109384 32.188555 10.814785
2004-03-12 09:52:33 51°15.498 2°37.741 4.901711 3.108963 32.188814 10.174306
2004-03-12 09:53:34 51°15.49 2°37.615 4.917556 3.113701 32.231219 9.702375
2004-03-12 09:54:33 51°15.484 2°37.514 4.94025 3.118755 32.272979 10.275435
2004-03-12 09:55:33 51°15.477 2°37.427 4.951619 3.124335 32.31904 10.54511
2004-03-12 09:56:34 51°15.46 2°37.342 4.959282 3.128231 32.354288 10.679947
2004-03-12 09:57:33 51°15.396 2°37.307 4.962681 3.130126 32.373431 10.443982
2004-03-12 09:58:34 51°15.306 2°37.452 4.968872 3.131495 32.381443 10.477691
2004-03-12 09:59:33 51°15.17 2°37.679 4.959079 3.127178 32.33544 10.679947
2004-03-12 10:00:34 51°15.029 2°37.925 4.937559 3.119807 32.266369 10.376563
2004-03-12 10:01:34 51°14.882 2°38.178 4.945934 3.12065 32.274313 10.848494
2004-03-12 10:02:34 51°14.73 2°38.422 4.908161 3.119702 32.275343 11.050751
2004-03-12 10:03:33 51°14.571 2°38.646 4.834478 3.109069 32.206126 12.331708
2004-03-12 10:04:33 51°14.4 2°38.862 4.816019 3.093803 32.087834 11.859777
2004-03-12 10:05:34 51°14.19 2°38.977 4.794908 3.088223 32.039036 11.960905
2004-03-12 10:06:33 51°13.966 2°38.965 4.795925 3.082537 31.986467 12.432836
2004-03-12 10:07:34 51°13.737 2°38.847 4.77949 3.079905 31.962169 11.893486
2004-03-12 10:08:34 51°13.528 2°38.649 4.773536 3.078958 31.961424 11.522683
2004-03-12 10:09:34 51°13.322 2°38.437 4.782391 3.082011 31.993099 12.500255
2004-03-12 10:10:33 51°13.118 2°38.225 4.793636 3.086749 32.036498 12.601383
2004-03-12 10:11:33 51°12.91 2°38.011 4.810525 3.091592 32.077702 13.241862
2004-03-12 10:12:33 51°12.703 2°37.801 4.837936 3.09854 32.139655 12.736221
2004-03-12 10:13:34 51°12.492 2°37.587 4.846172 3.105489 32.200718 13.107024
2004-03-12 10:14:33 51°12.289 2°37.384 4.851865 3.107384 32.219063 13.174443
2004-03-12 10:15:34 51°12.08 2°37.175 4.855576 3.108964 32.232932 13.848631
2004-03-12 10:16:34 51°11.874 2°36.974 4.854356 3.11149 32.255969 14.320563
2004-03-12 10:17:33 51°11.672 2°36.77 4.861675 3.111912 32.262501 13.444118
2004-03-12 10:18:33 51°11.464 2°36.564 4.868434 3.113912 32.279495 13.578956
2004-03-12 10:19:34 51°11.247 2°36.375 4.877276 3.11307 32.262183 13.545247
2004-03-12 10:20:33 51°11.036 2°36.198 4.902574 3.118544 32.301148 12.533965
2004-03-12 10:21:33 51°10.817 2°36.036 4.92375 3.125283 32.366467 12.601383
2004-03-12 10:22:34 51°10.594 2°35.872 4.943397 3.131074 32.409822 12.196871
2004-03-12 10:23:34 51°10.377 2°35.712 4.949792 3.134127 32.427753 12.635093
2004-03-12 10:24:33 51°10.165 2°35.547 4.929944 3.128336 32.365697 12.500255
2004-03-12 10:25:35 51°9.935 2°35.373 4.903235 3.114754 32.237342 13.680084
2004-03-12 10:26:34 51°9.723 2°35.183 4.824512 3.101067 32.103443 12.837349
2004-03-12 10:27:34 51°9.5 2°35.037 4.758978 3.051269 31.65378 12.365418
2004-03-12 10:28:33 51°9.278 2°34.896 4.766512 3.058744 31.737848 12.095742
2004-03-12 10:29:34 51°9.049 2°34.753 4.759029 3.064113 31.801977 12.635093
2004-03-12 10:30:34 51°8.868 2°34.647 4.788548 3.077168 31.936657 13.039606
2004-03-12 10:31:34 51°8.791 2°34.545 4.792262 3.090434 32.073723 13.545247
2004-03-12 10:32:34 51°8.769 2°34.455 4.788904 3.093698 32.116284 14.421691
2004-03-12 10:33:34 51°8.752 2°34.373 4.794043 3.095172 32.129818 14.152016
2004-03-12 10:34:34 51°8.725 2°34.278 4.788548 3.095803 32.143014 14.48911
2004-03-12 10:35:34 51°8.688 2°34.176 4.811288 3.097593 32.15508 14.691366
2004-03-12 10:36:33 51°8.644 2°34.086 4.818053 3.101699 32.186092 15.365554
2004-03-12 10:37:34 51°8.602 2°34 4.818714 3.104752 32.216047 15.500392
2004-03-12 10:38:34 51°8.565 2°33.918 4.820748 3.105595 32.226567 15.500392
2004-03-12 10:39:34 51°8.53 2°33.839 4.819426 3.107385 32.243715 15.770067
2004-03-12 10:40:34 51°8.497 2°33.763 4.832648 3.10928 32.261218 17.017315
2004-03-12 10:41:34 51°8.458 2°33.688 4.852323 3.112438 32.283856 16.848768
2004-03-12 10:42:33 51°8.422 2°33.598 4.846934 3.114649 32.295608 17.051024
2004-03-12 10:43:33 51°8.383 2°33.499 4.84485 3.113175 32.289761 16.17458
2004-03-12 10:44:34 51°8.343 2°33.404 4.85339 3.113491 32.292534 16.039742
2004-03-12 10:45:34 51°8.306 2°33.319 4.874227 3.116334 32.308977 16.241999
2004-03-12 10:46:34 51°8.268 2°33.244 4.882915 3.119598 32.330237 16.781349
2004-03-12 10:47:33 51°8.232 2°33.172 4.886675 3.120861 32.338766 16.646512
2004-03-12 10:48:34 51°8.191 2°33.107 4.884135 3.121809 32.347076 16.74764
2004-03-12 10:49:33 51°8.152 2°33.044 4.877479 3.112017 32.238219 17.185862
2004-03-12 10:50:33 51°8.11 2°32.982 4.875955 3.122862 32.369378 17.017315
2004-03-12 10:51:34 51°8.069 2°32.908 4.876259 3.123914 32.37975 16.949896
2004-03-12 10:52:33 51°8.03 2°32.832 4.875091 3.124757 32.391972 16.646512
2004-03-12 10:53:33 51°7.991 2°32.752 4.877784 3.125494 32.401281 17.28699
2004-03-12 10:54:34 51°7.953 2°32.667 4.890485 3.127389 32.413633 17.152153
2004-03-12 10:55:34 51°7.921 2°32.577 4.895057 3.1296 32.427896 16.882477
2004-03-12 10:56:34 51°7.892 2°32.483 4.898308 3.130442 32.437556 15.63523
2004-03-12 10:57:34 51°7.863 2°32.39 4.89907 3.131811 32.447275 16.241999
2004-03-12 10:58:34 51°7.834 2°32.297 4.897952 3.132443 32.457082 16.74764
2004-03-12 10:59:33 51°7.804 2°32.207 4.898968 3.13339 32.467095 16.612802
2004-03-12 11:00:34 51°7.776 2°32.11 4.895819 3.133812 32.475344 16.343127
2004-03-12 11:01:34 51°7.751 2°32.012 4.898663 3.134443 32.482591 16.410546
2004-03-12 11:02:34 51°7.728 2°31.914 4.902422 3.13518 32.489334 16.477965
2004-03-12 11:03:33 51°7.708 2°31.818 4.912884 3.137076 32.504229 15.399264
2004-03-12 11:04:33 51°7.691 2°31.718 4.921009 3.139708 32.523293 15.163298
2004-03-12 11:05:34 51°7.68 2°31.615 4.93492 3.142235 32.540285 15.298136
2004-03-12 11:06:34 51°7.682 2°31.516 4.942432 3.14413 32.552596 15.534101
2004-03-12 11:07:34 51°7.696 2°31.422 4.94898 3.146131 32.566964 16.006033
2004-03-12 11:08:34 51°7.723 2°31.345 4.957962 3.147815 32.578564 16.208289
2004-03-12 11:09:34 51°7.758 2°31.297 4.968314 3.150448 32.598446 16.241999
2004-03-12 11:10:33 51°7.797 2°31.278 4.975873 3.152343 32.60988 15.466683
2004-03-12 11:11:33 51°7.847 2°31.276 4.987185 3.152869 32.608203 15.63523
2004-03-12 11:12:33 51°7.897 2°31.292 4.997633 3.153922 32.610843 15.432973
2004-03-12 11:13:34 51°7.943 2°31.323 5.013403 3.155291 32.61453 14.826204
2004-03-12 11:14:34 51°7.98 2°31.365 5.022528 3.156133 32.610483 15.432973
2004-03-12 11:15:33 51°8.006 2°31.415 5.021109 3.155501 32.601546 15.129589
2004-03-12 11:16:34 51°8.019 2°31.468 5.017357 3.153606 32.582431 14.725076
2004-03-12 11:17:33 51°8.019 2°31.497 5.015279 3.152342 32.568833 14.590238
2004-03-12 11:18:34 51°8.015 2°31.506 5.01609 3.152026 32.566928 14.320563
2004-03-12 11:19:33 51°8.011 2°31.51 5.013961 3.151816 32.561957 15.06217
2004-03-12 11:20:34 51°8.025 2°31.667 5.020653 3.152342 32.567125 14.994751
2004-03-12 11:21:33 51°8.046 2°31.943 5.022731 3.152132 32.55618 15.06217
2004-03-12 11:22:33 51°8.069 2°32.236 5.005392 3.148446 32.523424 15.500392
2004-03-12 11:23:33 51°8.091 2°32.528 4.974097 3.142655 32.474239 16.140871
2004-03-12 11:24:33 51°8.115 2°32.822 4.903743 3.1316 32.397965 16.477965
2004-03-12 11:25:33 51°8.122 2°32.995 4.843681 3.118545 32.315609 17.624084
2004-03-12 11:26:33 51°8.129 2°33.01 4.828376 3.109174 32.246398 17.590375
2004-03-12 11:27:33 51°8.138 2°32.995 4.82558 3.106437 32.219235 17.354409
2004-03-12 11:28:34 51°8.144 2°32.979 4.827309 3.105489 32.20921 17.185862
2004-03-12 11:29:34 51°8.146 2°32.962 4.826953 3.104963 32.205718 17.28699
2004-03-12 11:30:34 51°8.147 2°32.944 4.836817 3.106016 32.211853 17.522956
2004-03-12 11:31:33 51°8.146 2°32.925 4.839918 3.10749 32.224518 17.084734
2004-03-12 11:32:34 51°8.145 2°32.903 4.842766 3.108016 32.22716 16.477965
2004-03-12 11:33:33 51°8.144 2°32.881 4.858015 3.108542 32.21876 16.781349
2004-03-12 11:34:34 51°8.143 2°32.855 4.871534 3.110016 32.219533 16.208289
2004-03-12 11:35:34 51°8.143 2°32.828 4.885913 3.110753 32.220344 15.736358
2004-03-12 11:36:34 51°8.142 2°32.802 4.90039 3.111806 32.220533 15.264426
2004-03-12 11:37:33 51°8.142 2°32.775 4.891095 3.11149 32.213523 15.60152
2004-03-12 11:38:34 51°8.141 2°32.746 4.897851 3.112016 32.22125 15.702648
2004-03-12 11:39:34 51°8.141 2°32.717 4.907958 3.113596 32.224926 15.264426
2004-03-12 11:40:34 51°8.142 2°32.686 4.897851 3.112016 32.207688 15.129589
2004-03-12 11:41:34 51°8.142 2°32.656 4.910091 3.112648 32.215769 15.06217
2004-03-12 11:42:34 51°8.141 2°32.628 4.907247 3.113911 32.226 15.298136
2004-03-12 11:43:33 51°8.14 2°32.6 4.910954 3.11528 32.239978 15.466683
2004-03-12 11:44:33 51°8.139 2°32.572 4.895057 3.114859 32.23346 15.972324
2004-03-12 11:45:34 51°8.172 2°32.669 4.903743 3.11349 32.228807 15.466683
2004-03-12 11:46:34 51°8.26 2°32.945 4.903996 3.112227 32.20671 15.567811
2004-03-12 11:47:33 51°8.352 2°33.232 4.883322 3.105278 32.140682 15.770067
2004-03-12 11:48:33 51°8.446 2°33.524 4.870213 3.095908 32.045208 15.60152
2004-03-12 11:49:33 51°8.539 2°33.813 4.858981 3.088222 31.970684 15.399264
2004-03-12 11:50:33 51°8.631 2°34.101 4.842105 3.080852 31.898909 15.432973
2004-03-12 11:51:34 51°8.724 2°34.393 4.838698 3.076957 31.85934 15.702648
2004-03-12 11:52:33 51°8.81 2°34.679 4.831021 3.07064 31.79707 15.702648
2004-03-12 11:53:33 51°8.898 2°34.969 4.811644 3.065166 31.748614 15.567811
2004-03-12 11:54:34 51°8.987 2°35.266 4.798164 3.061691 31.723047 16.208289
2004-03-12 11:55:34 51°9.074 2°35.557 4.793839 3.060744 31.718887 16.039742
2004-03-12 11:56:33 51°9.159 2°35.845 4.795773 3.060323 31.718247 16.208289
2004-03-12 11:57:33 51°9.247 2°36.139 4.802997 3.063376 31.749886 15.60152
2004-03-12 11:58:33 51°9.334 2°36.433 4.808745 3.068745 31.798001 16.241999
2004-03-12 11:59:34 51°9.422 2°36.734 4.807423 3.069587 31.808491 16.17458
2004-03-12 12:00:34 51°9.507 2°37.033 4.800759 3.070535 31.822708 15.736358
2004-03-12 12:01:33 51°9.591 2°37.329 4.792466 3.070114 31.825438 16.680221
2004-03-12 12:02:33 51°9.678 2°37.63 4.784172 3.069482 31.827436 15.803777
2004-03-12 12:03:33 51°9.761 2°37.935 4.761472 3.068009 31.822297 15.500392
2004-03-12 12:04:34 51°9.837 2°38.25 4.745588 3.064745 31.803343 15.500392
2004-03-12 12:05:33 51°9.901 2°38.56 4.733876 3.06106 31.777859 16.039742
2004-03-12 12:06:33 51°9.966 2°38.876 4.730209 3.059481 31.768972 16.343127
2004-03-12 12:07:33 51°10.034 2°39.194 4.723486 3.059481 31.768972 15.264426
2004-03-12 12:08:34 51°10.102 2°39.516 4.720888 3.058007 31.756249 15.500392
2004-03-12 12:09:33 51°10.166 2°39.827 4.723435 3.054744 31.722974 16.039742
2004-03-12 12:10:33 51°10.232 2°40.145 4.71722 3.051796 31.687454 15.567811
2004-03-12 12:11:33 51°10.296 2°40.464 4.701427 3.046216 31.632614 15.668939
2004-03-12 12:12:33 51°10.362 2°40.782 4.686139 3.037374 31.547813 16.74764
2004-03-12 12:13:33 51°10.426 2°41.1 4.672682 3.032636 31.503438 17.28699
2004-03-12 12:14:34 51°10.491 2°41.423 4.661976 3.02811 31.465634 17.556665
2004-03-12 12:15:34 51°10.555 2°41.74 4.647954 3.022846 31.416844 16.781349
2004-03-12 12:16:33 51°10.619 2°42.053 4.645251 3.019793 31.387604 15.837486
2004-03-12 12:17:34 51°10.683 2°42.377 4.639131 3.014425 31.329265 15.63523
2004-03-12 12:18:34 51°10.746 2°42.698 4.638672 3.012214 31.308858 15.365554
2004-03-12 12:19:33 51°10.806 2°43.012 4.629235 3.005056 31.231625 14.522819
2004-03-12 12:20:33 51°10.876 2°43.326 4.628674 3.00074 31.186204 14.421691
2004-03-12 12:21:33 51°10.947 2°43.642 4.625919 2.996213 31.136712 13.848631
2004-03-12 12:22:34 51°11.019 2°43.964 4.623266 2.992529 31.096066 14.118306
2004-03-12 12:23:33 51°11.095 2°44.272 4.621481 2.988424 31.049768 13.578956
2004-03-12 12:24:34 51°11.175 2°44.591 4.616021 2.982845 30.989032 13.174443
2004-03-12 12:25:34 51°11.254 2°44.907 4.618215 2.984213 31.00885 12.567674
2004-03-12 12:26:34 51°11.333 2°45.221 4.620154 2.987687 31.047076 12.466546
2004-03-12 12:27:33 51°11.412 2°45.527 4.620562 2.979897 30.95439 12.500255
2004-03-12 12:28:33 51°11.491 2°45.838 4.622093 2.969055 30.830844 12.837349
2004-03-12 12:29:34 51°11.573 2°46.154 4.618266 2.952108 30.635768 12.76993
2004-03-12 12:30:33 51°11.649 2°46.46 4.61643 2.962213 30.755658 12.196871
2004-03-12 12:31:34 51°11.728 2°46.777 4.624593 2.969476 30.83649 12.163161
2004-03-12 12:32:34 51°11.805 2°47.088 4.626684 2.959687 30.71936 12.837349
2004-03-12 12:33:33 51°11.882 2°47.39 4.628725 2.95474 30.662667 13.545247
2004-03-12 12:34:33 51°11.979 2°47.69 4.625562 2.940741 30.49827 15.129589
2004-03-12 12:35:34 51°12.077 2°48 4.621685 2.945161 30.555372 15.197007
2004-03-12 12:36:34 51°12.173 2°48.302 4.632143 2.958845 30.706451 12.399127
2004-03-12 12:37:33 51°12.266 2°48.598 4.632143 2.95074 30.611156 13.073315
2004-03-12 12:38:33 51°12.359 2°48.896 4.638723 2.945898 30.554084 13.039606
2004-03-12 12:39:34 51°12.46 2°49.193 4.635968 2.939793 30.482574 13.309281
2004-03-12 12:40:33 51°12.562 2°49.478 4.635509 2.936636 30.447239 13.3767
2004-03-12 12:41:34 51°12.672 2°49.771 4.631173 2.936109 30.444445 13.140734
2004-03-12 12:42:33 51°12.78 2°50.053 4.626786 2.932531 30.404294 12.80364
2004-03-12 12:43:34 51°12.89 2°50.346 4.624899 2.930741 30.387041 13.005896
2004-03-12 12:44:34 51°12.998 2°50.636 4.622858 2.925794 30.331237 13.107024
2004-03-12 12:45:34 51°13.105 2°50.925 4.628113 2.928215 30.361354 13.107024
2004-03-12 12:46:33 51°13.221 2°51.198 4.629439 2.91969 30.25899 12.432836
2004-03-12 12:47:33 51°13.339 2°51.477 4.63102 2.917901 30.236922 12.702512
2004-03-12 12:48:33 51°13.425 2°51.695 4.63102 2.915901 30.210848 12.567674
2004-03-12 12:49:33 51°13.453 2°51.792 4.630714 2.912849 30.179153 12.399127
2004-03-12 12:50:34 51°13.469 2°51.841 5.136738 1.958277 18.269699 12.163161
2004-03-12 12:51:34 51°13.479 2°51.867 4.661721 2.57372 24.268934 9.095606
2004-03-12 12:52:33 51°13.487 2°51.879 5.12024 1.947545 16.571072 8.724802
2004-03-12 12:53:34 51°13.494 2°51.881 5.319498 1.91384 16.27204 8.589965
2004-03-12 12:54:34 51°13.532 2°51.943 5.526677 1.900716 16.202738 8.387708
2004-03-12 12:55:34 51°13.65 2°52.175 5.693417 1.894627 16.17978 8.151742
2004-03-12 12:56:34 51°13.783 2°52.444 5.928413 1.890428 16.181273 8.050614
2004-03-12 12:57:34 51°13.918 2°52.717 6.115774 1.886964 16.183112 7.882067
2004-03-12 12:58:34 51°14.054 2°52.99 6.315596 1.884339 16.174599 7.679811
2004-03-12 12:59:34 51°14.18 2°53.275 6.492111 1.88182 16.16633 7.544973
2004-03-12 13:00:34 51°14.285 2°53.579 6.656627 1.879825 16.154581 7.376426
2004-03-12 13:01:34 51°14.376 2°53.897 6.839884 1.878041 16.141876 7.241589
2004-03-12 13:02:34 51°14.423 2°54.239 7.034008 1.876571 16.132481 7.106751
2004-03-12 13:03:33 51°14.44 2°54.586 7.218486 1.874786 16.118675 6.971913